Time;durP1;ratioP1;P1;durP2;ratioP2;P2;SDS_P1;SDS_P2;PMS_P1;PMS_P2;Temp;Humidity;BMP_temperature;BMP_pressure;BME280_temperature;BME280_humidity;BME280_pressure;Samples;Min_cycle;Max_cycle;Signal;HPM_P1;HPM_P2
2024/01/05 00:01:54;;;;;;;0.57;0.43;;;5.30;99.90;;;;;;5078663;28;20480;-79
2024/01/05 00:04:22;;;;;;;0.50;0.50;;;5.30;99.90;;;;;;5078637;28;20440;-79
2024/01/05 00:06:49;;;;;;;0.93;0.53;;;5.30;99.90;;;;;;5075370;28;21004;-79
2024/01/05 00:09:16;;;;;;;4.83;0.87;;;5.30;99.90;;;;;;5075547;28;21046;-79
2024/01/05 00:11:43;;;;;;;0.70;0.40;;;5.30;99.90;;;;;;5075541;28;20456;-79
2024/01/05 00:14:10;;;;;;;1.13;0.50;;;5.30;99.90;;;;;;5075594;28;20777;-79
2024/01/05 00:16:37;;;;;;;3.23;0.50;;;5.40;99.90;;;;;;5075502;28;20440;-79
2024/01/05 00:19:03;;;;;;;2.30;0.70;;;5.40;99.90;;;;;;5075320;28;20469;-79
2024/01/05 00:21:32;;;;;;;0.40;0.37;;;5.40;99.90;;;;;;5075276;28;20503;-79
2024/01/05 00:23:58;;;;;;;1.13;0.43;;;5.40;99.90;;;;;;5074158;28;20443;-79
2024/01/05 00:26:25;;;;;;;1.50;0.50;;;5.40;99.90;;;;;;5075360;28;20547;-79
2024/01/05 00:28:53;;;;;;;3.90;0.93;;;5.30;99.90;;;;;;5075093;28;20480;-79
2024/01/05 00:31:20;;;;;;;1.50;0.70;;;5.30;99.90;;;;;;5075239;28;20455;-79
2024/01/05 00:33:47;;;;;;;1.47;0.67;;;5.30;99.90;;;;;;5075118;28;20479;-79
2024/01/05 00:36:13;;;;;;;0.40;0.40;;;5.20;99.90;;;;;;5074852;28;20444;-79
2024/01/05 00:38:47;;;;;;;0.80;0.50;;;5.20;99.90;;;;;;5074887;28;20469;-79
2024/01/05 00:41:13;;;;;;;0.80;0.50;;;5.20;99.90;;;;;;5074847;28;20851;-78
2024/01/05 00:43:41;;;;;;;0.80;0.50;;;5.20;99.90;;;;;;5076008;28;20447;-79
2024/01/05 00:46:08;;;;;;;1.83;0.73;;;5.20;99.90;;;;;;5074687;28;20445;-79
2024/01/05 00:48:34;;;;;;;2.93;0.60;;;5.10;99.90;;;;;;5074955;28;20468;-79
2024/01/05 00:51:01;;;;;;;0.77;0.57;;;5.20;99.90;;;;;;5074901;28;20448;-79
2024/01/05 00:53:28;;;;;;;0.60;0.40;;;5.20;99.90;;;;;;5074905;28;20437;-79
2024/01/05 00:55:56;;;;;;;0.73;0.73;;;5.20;99.90;;;;;;5074733;28;20444;-79
2024/01/05 00:58:23;;;;;;;0.70;0.50;;;5.20;99.90;;;;;;5075464;28;20469;-79
2024/01/05 01:00:49;;;;;;;6.97;0.73;;;5.10;99.90;;;;;;5077241;28;20430;-79
2024/01/05 01:03:16;;;;;;;0.60;0.60;;;5.20;99.90;;;;;;5076712;28;20480;-79
2024/01/05 01:05:44;;;;;;;0.40;0.40;;;5.20;99.90;;;;;;5076511;28;20487;-79
2024/01/05 01:08:12;;;;;;;0.97;0.97;;;5.20;99.90;;;;;;5076521;28;20469;-79
2024/01/05 01:10:39;;;;;;;0.87;0.50;;;5.20;99.90;;;;;;5076313;28;20948;-79
2024/01/05 01:13:07;;;;;;;1.73;0.97;;;5.20;99.90;;;;;;5077147;28;20842;-79
2024/01/05 01:15:34;;;;;;;3.23;0.90;;;5.20;99.90;;;;;;5076887;28;20448;-79
2024/01/05 01:18:01;;;;;;;0.60;0.50;;;5.20;99.90;;;;;;5076186;28;20461;-79
2024/01/05 01:20:27;;;;;;;0.70;0.50;;;5.20;99.90;;;;;;5075989;28;20448;-79
2024/01/05 01:22:54;;;;;;;6.70;0.50;;;5.20;99.90;;;;;;5075982;28;20480;-79
2024/01/05 01:25:21;;;;;;;2.90;0.47;;;5.20;99.90;;;;;;5076513;28;20437;-79
2024/01/05 01:27:47;;;;;;;0.50;0.50;;;5.20;99.90;;;;;;5075609;28;20460;-79
2024/01/05 01:30:15;;;;;;;0.53;0.50;;;5.20;99.90;;;;;;5076128;28;20441;-79
2024/01/05 01:32:42;;;;;;;0.40;0.30;;;5.20;99.90;;;;;;5075672;28;20437;-79
2024/01/05 01:35:09;;;;;;;0.47;0.47;;;5.20;99.90;;;;;;5078461;28;20433;-79
2024/01/05 01:37:36;;;;;;;0.50;0.50;;;5.20;99.90;;;;;;5080874;28;20470;-79
2024/01/05 01:40:04;;;;;;;0.50;0.40;;;5.20;99.90;;;;;;5079110;28;20510;-79
2024/01/05 01:42:31;;;;;;;0.30;0.30;;;5.30;99.90;;;;;;5078830;28;21012;-79
2024/01/05 01:44:58;;;;;;;0.77;0.30;;;5.30;99.90;;;;;;5079156;28;20452;-79
2024/01/05 01:47:27;;;;;;;2.03;0.53;;;5.40;99.90;;;;;;5078976;28;20444;-79
2024/01/05 01:49:54;;;;;;;2.67;0.43;;;5.40;99.90;;;;;;5078762;28;20860;-79
2024/01/05 01:52:20;;;;;;;2.10;0.40;;;5.30;99.90;;;;;;5078781;28;20440;-79
2024/01/05 01:54:47;;;;;;;1.07;0.40;;;5.50;99.90;;;;;;5078398;28;20432;-79
2024/01/05 01:57:16;;;;;;;0.40;0.40;;;5.40;99.90;;;;;;5078951;28;20448;-79
2024/01/05 01:59:43;;;;;;;0.60;0.33;;;5.40;99.90;;;;;;5078949;28;20506;-79
2024/01/05 02:02:11;;;;;;;0.40;0.30;;;5.40;99.90;;;;;;5078741;28;20480;-79
2024/01/05 02:04:40;;;;;;;0.40;0.40;;;5.50;99.90;;;;;;5078030;28;20941;-79
2024/01/05 02:07:08;;;;;;;0.30;0.30;;;5.50;99.90;;;;;;5078135;28;20473;-79
2024/01/05 02:09:35;;;;;;;1.00;0.40;;;5.50;99.90;;;;;;5078560;28;20473;-79
2024/01/05 02:12:01;;;;;;;0.50;0.40;;;5.40;99.90;;;;;;5078276;28;20437;-79
2024/01/05 02:14:28;;;;;;;1.23;0.30;;;5.40;99.90;;;;;;5078488;28;20531;-79
2024/01/05 02:16:56;;;;;;;1.90;0.40;;;5.40;99.90;;;;;;5078093;28;20447;-79
2024/01/05 02:19:23;;;;;;;0.30;0.30;;;5.50;99.90;;;;;;5077777;28;20464;-79
2024/01/05 02:21:55;;;;;;;12.00;0.40;;;5.40;99.90;;;;;;5077745;28;20487;-79
2024/01/05 02:24:23;;;;;;;0.93;0.60;;;5.40;99.90;;;;;;5078196;28;20444;-79
2024/01/05 02:26:50;;;;;;;0.40;0.40;;;5.40;99.90;;;;;;5079240;28;20428;-79
2024/01/05 02:29:21;;;;;;;0.30;0.27;;;5.40;99.90;;;;;;5078369;28;20978;-79
2024/01/05 02:31:48;;;;;;;0.80;0.40;;;5.40;99.90;;;;;;5078640;28;20425;-79
2024/01/05 02:34:15;;;;;;;0.50;0.50;;;5.50;99.90;;;;;;5078817;28;20429;-79
2024/01/05 02:36:42;;;;;;;0.40;0.40;;;5.50;99.90;;;;;;5078677;28;20445;-79
2024/01/05 02:39:08;;;;;;;7.03;0.70;;;5.40;99.90;;;;;;5078814;28;20461;-79
2024/01/05 02:41:36;;;;;;;1.60;0.50;;;5.40;99.90;;;;;;5078433;28;20925;-80
2024/01/05 02:44:03;;;;;;;0.40;0.40;;;5.40;99.90;;;;;;5079482;28;20440;-79
2024/01/05 02:46:32;;;;;;;0.50;0.30;;;5.50;99.90;;;;;;5078615;28;20444;-79
2024/01/05 02:48:59;;;;;;;2.67;0.40;;;5.50;99.90;;;;;;5079728;28;20465;-80
2024/01/05 02:51:25;;;;;;;0.47;0.47;;;5.50;99.90;;;;;;5080306;28;20444;-80
2024/01/05 02:53:52;;;;;;;2.40;0.77;;;5.50;99.90;;;;;;5080007;28;20437;-79
2024/01/05 02:56:22;;;;;;;0.40;0.30;;;5.50;99.90;;;;;;5079787;28;20456;-79
2024/01/05 02:58:50;;;;;;;0.40;0.30;;;5.50;99.90;;;;;;5081175;28;20477;-80
2024/01/05 03:01:17;;;;;;;0.30;0.30;;;5.50;99.90;;;;;;5080010;28;20452;-79
2024/01/05 03:03:45;;;;;;;0.40;0.33;;;5.50;99.90;;;;;;5079282;28;20489;-79
2024/01/05 03:06:12;;;;;;;1.97;0.60;;;5.60;99.90;;;;;;5079191;28;20481;-79
2024/01/05 03:08:38;;;;;;;0.53;0.40;;;5.60;99.90;;;;;;5079682;28;20465;-79
2024/01/05 03:11:05;;;;;;;0.30;0.30;;;5.60;99.90;;;;;;5078927;28;20445;-79
2024/01/05 03:13:32;;;;;;;0.40;0.30;;;5.50;99.90;;;;;;5077386;28;20441;-79
2024/01/05 03:16:00;;;;;;;0.40;0.33;;;5.60;99.90;;;;;;5079797;28;20460;-80
2024/01/05 03:18:27;;;;;;;0.57;0.57;;;5.60;99.90;;;;;;5079736;28;20468;-79
2024/01/05 03:20:53;;;;;;;0.80;0.37;;;5.50;99.90;;;;;;5079547;28;20520;-79
2024/01/05 03:23:20;;;;;;;0.40;0.40;;;5.50;99.90;;;;;;5079794;28;20481;-79
2024/01/05 03:25:47;;;;;;;2.70;0.40;;;5.50;99.90;;;;;;5081292;28;20449;-79
2024/01/05 03:28:13;;;;;;;0.93;0.33;;;5.40;99.90;;;;;;5080133;28;20469;-79
2024/01/05 03:30:42;;;;;;;0.50;0.50;;;5.40;99.90;;;;;;5078826;28;20453;-80
2024/01/05 03:33:10;;;;;;;0.30;0.30;;;5.50;99.90;;;;;;5079250;28;20428;-79
2024/01/05 03:35:37;;;;;;;0.30;0.30;;;5.50;99.90;;;;;;5078648;28;20436;-79
2024/01/05 03:38:04;;;;;;;1.70;0.80;;;5.50;99.90;;;;;;5078706;28;20469;-79
2024/01/05 03:40:31;;;;;;;1.07;0.60;;;5.50;99.90;;;;;;5079523;28;20447;-79
2024/01/05 03:42:58;;;;;;;0.87;0.53;;;5.50;99.90;;;;;;5078699;28;20481;-79
2024/01/05 03:45:25;;;;;;;0.40;0.40;;;5.60;99.90;;;;;;5079103;28;20456;-79
2024/01/05 03:47:51;;;;;;;0.80;0.40;;;5.60;99.90;;;;;;5079034;28;20536;-79
2024/01/05 03:50:20;;;;;;;2.40;0.50;;;5.50;99.90;;;;;;5079356;28;20452;-79
2024/01/05 03:52:46;;;;;;;3.40;0.73;;;5.50;99.90;;;;;;5081742;28;20432;-79
2024/01/05 03:55:13;;;;;;;3.27;0.60;;;5.50;99.90;;;;;;5096755;28;20436;-79
2024/01/05 03:57:40;;;;;;;0.30;0.30;;;5.50;99.90;;;;;;5096312;28;20472;-79
2024/01/05 04:00:09;;;;;;;0.40;0.30;;;5.60;99.90;;;;;;5096233;28;20437;-79
2024/01/05 04:02:36;;;;;;;0.50;0.50;;;5.60;99.90;;;;;;5097406;28;20476;-79
2024/01/05 04:05:02;;;;;;;0.80;0.30;;;5.60;99.90;;;;;;5090361;28;20855;-79
2024/01/05 04:07:30;;;;;;;1.93;0.50;;;5.60;99.90;;;;;;5079776;28;20460;-79
2024/01/05 04:09:57;;;;;;;4.20;0.40;;;5.60;99.90;;;;;;5077930;28;20459;-79
2024/01/05 04:12:24;;;;;;;0.30;0.30;;;5.60;99.90;;;;;;5077101;28;20455;-79
2024/01/05 04:14:50;;;;;;;0.57;0.57;;;5.70;99.90;;;;;;5077387;28;20441;-79
2024/01/05 04:17:16;;;;;;;0.97;0.37;;;5.60;99.90;;;;;;5077111;28;20432;-79
2024/01/05 04:19:43;;;;;;;0.60;0.40;;;5.60;99.90;;;;;;5077532;28;20206;-79
2024/01/05 04:22:10;;;;;;;0.40;0.30;;;5.70;99.90;;;;;;5077899;28;20429;-79
2024/01/05 04:24:38;;;;;;;1.27;0.30;;;5.70;99.90;;;;;;5078016;28;20445;-79
2024/01/05 04:27:05;;;;;;;0.47;0.40;;;5.70;99.90;;;;;;5077741;28;20445;-79
2024/01/05 04:29:31;;;;;;;0.50;0.50;;;5.80;99.90;;;;;;5077029;28;20464;-79
2024/01/05 04:31:58;;;;;;;0.97;0.40;;;5.80;99.90;;;;;;5077569;28;20436;-79
2024/01/05 04:34:25;;;;;;;0.40;0.37;;;5.80;99.90;;;;;;5076988;28;20934;-79
2024/01/05 04:36:51;;;;;;;1.07;0.47;;;5.80;99.90;;;;;;5077329;28;20456;-79
2024/01/05 04:39:18;;;;;;;0.30;0.30;;;5.80;99.90;;;;;;5077318;28;20461;-79
2024/01/05 04:41:46;;;;;;;0.40;0.40;;;5.80;99.90;;;;;;5077026;28;20428;-79
2024/01/05 04:44:13;;;;;;;2.30;0.90;;;5.70;99.90;;;;;;5077186;28;20491;-79
2024/01/05 04:46:39;;;;;;;0.40;0.33;;;5.70;99.90;;;;;;5077285;28;20801;-79
2024/01/05 04:49:06;;;;;;;6.83;0.50;;;5.70;99.90;;;;;;5076828;28;20468;-79
2024/01/05 04:51:34;;;;;;;0.40;0.33;;;5.70;99.90;;;;;;5077743;28;20457;-80
2024/01/05 04:54:00;;;;;;;0.40;0.40;;;5.70;99.90;;;;;;5076887;28;20471;-79
2024/01/05 04:56:27;;;;;;;0.40;0.30;;;5.70;99.90;;;;;;5077032;28;20441;-79
2024/01/05 04:58:55;;;;;;;0.30;0.30;;;5.70;99.90;;;;;;5077076;28;20811;-79
2024/01/05 05:01:22;;;;;;;0.37;0.33;;;5.60;99.90;;;;;;5076541;28;20807;-79
2024/01/05 05:03:49;;;;;;;0.40;0.40;;;5.70;99.90;;;;;;5076419;28;20481;-79
2024/01/05 05:06:16;;;;;;;0.40;0.40;;;5.70;99.90;;;;;;5077042;28;20486;-79
2024/01/05 05:08:42;;;;;;;0.40;0.40;;;5.70;99.90;;;;;;5076742;28;20460;-79
2024/01/05 05:11:09;;;;;;;0.47;0.47;;;5.70;99.90;;;;;;5075578;28;20972;-79
2024/01/05 05:13:36;;;;;;;0.30;0.30;;;5.70;99.90;;;;;;5076399;28;20949;-79
2024/01/05 05:16:04;;;;;;;1.90;0.30;;;5.70;99.90;;;;;;5077181;28;20441;-79
2024/01/05 05:18:31;;;;;;;0.40;0.30;;;5.60;99.90;;;;;;5077900;28;20480;-79
2024/01/05 05:20:58;;;;;;;0.40;0.40;;;5.60;99.90;;;;;;5077074;28;20445;-80
2024/01/05 05:23:24;;;;;;;0.37;0.33;;;5.70;99.90;;;;;;5076470;28;20477;-79
2024/01/05 05:25:51;;;;;;;0.73;0.30;;;5.70;99.90;;;;;;5077031;28;20441;-79
2024/01/05 05:28:18;;;;;;;0.30;0.30;;;5.60;99.90;;;;;;5077150;28;20464;-79
2024/01/05 05:30:44;;;;;;;0.30;0.30;;;5.60;99.90;;;;;;5077288;28;20453;-79
2024/01/05 05:33:12;;;;;;;0.30;0.30;;;5.70;99.90;;;;;;5076919;28;20445;-79
2024/01/05 05:35:39;;;;;;;6.20;0.77;;;5.70;99.90;;;;;;5076822;28;20949;-79
2024/01/05 05:38:06;;;;;;;0.70;0.33;;;5.70;99.90;;;;;;5076722;28;20461;-79
2024/01/05 05:40:33;;;;;;;2.00;0.43;;;5.70;99.90;;;;;;5077108;28;20535;-79
2024/01/05 05:42:59;;;;;;;0.30;0.30;;;5.70;99.90;;;;;;5075302;28;20491;-79
2024/01/05 05:45:26;;;;;;;0.90;0.63;;;5.70;99.90;;;;;;5075495;28;20441;-79
2024/01/05 05:47:53;;;;;;;0.37;0.27;;;5.60;99.90;;;;;;5075989;28;20538;-79
2024/01/05 05:50:21;;;;;;;0.30;0.30;;;5.60;99.90;;;;;;5076561;28;20480;-79
2024/01/05 05:52:51;;;;;;;0.30;0.30;;;5.60;99.90;;;;;;5077745;28;20841;-79
2024/01/05 05:55:17;;;;;;;0.40;0.40;;;5.60;99.90;;;;;;5077379;28;20455;-79
2024/01/05 05:57:44;;;;;;;0.60;0.30;;;5.60;99.90;;;;;;5075617;28;20465;-79
2024/01/05 06:00:12;;;;;;;3.20;0.40;;;5.60;99.90;;;;;;5075932;28;20452;-79
2024/01/05 06:02:39;;;;;;;0.40;0.40;;;5.60;99.90;;;;;;5075710;28;20441;-79
2024/01/05 06:05:06;;;;;;;0.40;0.40;;;5.60;99.90;;;;;;5074713;28;20437;-79
2024/01/05 06:07:34;;;;;;;0.40;0.30;;;5.60;99.90;;;;;;5074939;28;20455;-79
2024/01/05 06:10:02;;;;;;;0.30;0.30;;;5.50;99.90;;;;;;5074748;28;20445;-79
2024/01/05 06:12:29;;;;;;;0.30;0.30;;;5.50;99.90;;;;;;5074756;28;20453;-79
2024/01/05 06:14:55;;;;;;;0.40;0.40;;;5.50;99.90;;;;;;5074356;28;20462;-79
2024/01/05 06:17:22;;;;;;;0.30;0.30;;;5.50;99.90;;;;;;5074227;28;20942;-79
2024/01/05 06:19:49;;;;;;;1.03;0.30;;;5.40;99.90;;;;;;5074350;28;20448;-79
2024/01/05 06:22:16;;;;;;;0.83;0.53;;;5.50;99.90;;;;;;5077231;28;20451;-79
2024/01/05 06:24:44;;;;;;;0.37;0.37;;;5.50;99.90;;;;;;5078075;28;20473;-79
2024/01/05 06:27:11;;;;;;;0.63;0.50;;;5.50;99.90;;;;;;5078199;28;20861;-79
2024/01/05 06:29:38;;;;;;;0.40;0.40;;;5.50;99.90;;;;;;5078653;28;20490;-79
2024/01/05 06:32:06;;;;;;;0.77;0.47;;;5.50;99.90;;;;;;5078178;28;20448;-79
2024/01/05 06:34:32;;;;;;;1.07;0.43;;;5.50;99.90;;;;;;5078231;28;20432;-79
2024/01/05 06:37:00;;;;;;;0.60;0.40;;;5.50;99.90;;;;;;5077397;28;20444;-79
2024/01/05 06:39:26;;;;;;;0.50;0.50;;;5.40;99.90;;;;;;5077221;28;20457;-79
2024/01/05 06:41:54;;;;;;;0.40;0.30;;;5.50;99.90;;;;;;5077563;28;20444;-79
2024/01/05 06:44:21;;;;;;;5.13;0.80;;;5.50;99.90;;;;;;5077395;28;20992;-79
2024/01/05 06:46:50;;;;;;;0.80;0.43;;;5.50;99.90;;;;;;5077673;28;20441;-79
2024/01/05 06:49:17;;;;;;;6.33;0.63;;;5.50;99.90;;;;;;5077460;28;20493;-79
2024/01/05 06:51:44;;;;;;;0.50;0.50;;;5.50;99.90;;;;;;5077601;28;20445;-79
2024/01/05 06:54:12;;;;;;;2.00;0.90;;;5.50;99.90;;;;;;5077112;28;20443;-79
2024/01/05 06:56:42;;;;;;;1.47;0.47;;;5.50;99.90;;;;;;5077581;28;20524;-79
2024/01/05 06:59:10;;;;;;;2.60;1.27;;;5.60;99.90;;;;;;5077091;28;20515;-79
2024/01/05 07:01:36;;;;;;;1.83;0.73;;;5.60;99.90;;;;;;5077270;28;20938;-79
2024/01/05 07:04:03;;;;;;;0.40;0.40;;;5.60;99.90;;;;;;5077115;28;20489;-79
2024/01/05 07:06:30;;;;;;;0.73;0.73;;;5.60;99.90;;;;;;5076960;28;20475;-79
2024/01/05 07:08:57;;;;;;;2.80;0.50;;;5.60;99.90;;;;;;5079208;28;20469;-79
2024/01/05 07:11:24;;;;;;;0.30;0.30;;;5.60;99.90;;;;;;5077307;28;20507;-79
2024/01/05 07:13:52;;;;;;;3.27;0.30;;;5.60;99.90;;;;;;5077194;28;20441;-79
2024/01/05 07:16:21;;;;;;;1.53;0.43;;;5.60;99.90;;;;;;5077018;28;20445;-79
2024/01/05 07:18:48;;;;;;;0.50;0.40;;;5.60;99.90;;;;;;5076910;28;20457;-79
2024/01/05 07:21:15;;;;;;;0.40;0.30;;;5.60;99.90;;;;;;5077020;28;20447;-79
2024/01/05 07:23:42;;;;;;;1.33;0.40;;;5.50;99.90;;;;;;5076786;28;20481;-79
2024/01/05 07:26:09;;;;;;;0.40;0.40;;;5.50;99.90;;;;;;5076993;28;20981;-79
2024/01/05 07:28:37;;;;;;;0.70;0.40;;;5.50;99.90;;;;;;5077843;28;20460;-79
2024/01/05 07:31:05;;;;;;;0.40;0.40;;;5.50;99.90;;;;;;5078068;28;20451;-80
2024/01/05 07:33:33;;;;;;;0.37;0.37;;;5.50;99.90;;;;;;5077681;28;20433;-79
2024/01/05 07:36:04;;;;;;;0.37;0.30;;;5.50;99.90;;;;;;5077713;28;20444;-79
2024/01/05 07:38:31;;;;;;;0.40;0.30;;;5.50;99.90;;;;;;5077751;28;21076;-79
2024/01/05 07:40:58;;;;;;;0.30;0.30;;;5.50;99.90;;;;;;5077227;28;20456;-79
2024/01/05 07:43:25;;;;;;;1.63;0.47;;;5.50;99.90;;;;;;5077049;28;20441;-79
2024/01/05 07:45:52;;;;;;;0.83;0.30;;;5.60;99.90;;;;;;5077091;28;20449;-79
2024/01/05 07:48:19;;;;;;;0.57;0.53;;;5.50;99.90;;;;;;5076732;28;20471;-79
2024/01/05 07:50:47;;;;;;;1.57;0.57;;;5.60;99.90;;;;;;5077109;28;20448;-79
2024/01/05 07:53:14;;;;;;;3.33;0.50;;;5.60;99.90;;;;;;5077225;28;20445;-79
2024/01/05 07:55:40;;;;;;;0.40;0.40;;;5.60;99.90;;;;;;5076754;28;20445;-79
2024/01/05 07:58:07;;;;;;;2.50;0.50;;;5.70;99.90;;;;;;5076711;28;20456;-79
2024/01/05 08:00:34;;;;;;;0.40;0.33;;;5.70;99.90;;;;;;5076738;28;20448;-79
2024/01/05 08:03:03;;;;;;;0.30;0.30;;;5.70;99.90;;;;;;5076389;28;20437;-79
2024/01/05 08:05:30;;;;;;;0.57;0.30;;;5.80;99.90;;;;;;5076251;28;21021;-79
2024/01/05 08:07:58;;;;;;;0.37;0.30;;;5.80;99.90;;;;;;5076751;28;20468;-79
2024/01/05 08:10:25;;;;;;;1.67;0.40;;;5.90;99.90;;;;;;5076384;28;20445;-79
2024/01/05 08:12:51;;;;;;;1.43;0.40;;;5.90;99.90;;;;;;5076242;28;20449;-79
2024/01/05 08:15:18;;;;;;;0.40;0.30;;;5.90;99.90;;;;;;5076379;28;20448;-79
2024/01/05 08:17:45;;;;;;;2.60;0.50;;;6.00;99.90;;;;;;5076017;28;20477;-79
2024/01/05 08:20:12;;;;;;;0.40;0.30;;;6.00;99.90;;;;;;5076304;28;20440;-79
2024/01/05 08:22:38;;;;;;;0.47;0.47;;;6.10;99.90;;;;;;5076220;28;20484;-79
2024/01/05 08:25:07;;;;;;;0.50;0.40;;;6.10;99.90;;;;;;5076068;28;20472;-79
2024/01/05 08:27:34;;;;;;;0.50;0.50;;;6.20;99.90;;;;;;5075973;28;20464;-79
2024/01/05 08:30:00;;;;;;;0.40;0.40;;;6.20;99.90;;;;;;5076257;28;20804;-79
2024/01/05 08:32:27;;;;;;;0.80;0.50;;;6.30;99.90;;;;;;5076185;28;20433;-79
2024/01/05 08:34:54;;;;;;;1.00;0.50;;;6.30;99.90;;;;;;5075147;28;20933;-79
2024/01/05 08:37:20;;;;;;;0.30;0.30;;;6.40;99.90;;;;;;5075914;28;20421;-79
2024/01/05 08:39:47;;;;;;;1.90;0.50;;;6.40;99.90;;;;;;5075310;28;20440;-79
2024/01/05 08:42:15;;;;;;;0.50;0.30;;;6.30;99.90;;;;;;5075306;28;20440;-79
2024/01/05 08:44:42;;;;;;;0.40;0.40;;;6.30;99.90;;;;;;5074878;28;20833;-79
2024/01/05 08:47:08;;;;;;;1.13;0.60;;;6.40;99.90;;;;;;5076014;28;20453;-79
2024/01/05 08:49:35;;;;;;;0.40;0.30;;;6.40;99.90;;;;;;5075020;28;20816;-79
2024/01/05 08:52:02;;;;;;;0.80;0.30;;;6.40;99.90;;;;;;5076161;28;20445;-79
2024/01/05 08:54:29;;;;;;;0.37;0.37;;;6.40;99.90;;;;;;5081230;28;20506;-79
2024/01/05 08:56:56;;;;;;;0.80;0.50;;;6.40;99.90;;;;;;5079957;28;20953;-79
2024/01/05 08:59:24;;;;;;;3.80;0.50;;;6.40;99.90;;;;;;5078290;28;20537;-79
2024/01/05 09:01:51;;;;;;;1.23;0.40;;;6.40;99.90;;;;;;5076476;28;20452;-79
2024/01/05 09:04:18;;;;;;;0.40;0.30;;;6.30;99.90;;;;;;5076357;28;20817;-79
2024/01/05 09:06:45;;;;;;;1.27;0.60;;;6.30;99.90;;;;;;5075190;28;20484;-79
2024/01/05 09:09:12;;;;;;;1.43;0.50;;;6.30;99.90;;;;;;5075314;28;20473;-79
2024/01/05 09:11:39;;;;;;;0.40;0.40;;;6.30;99.90;;;;;;5075138;28;20451;-79
2024/01/05 09:14:06;;;;;;;0.30;0.30;;;6.30;99.90;;;;;;5075378;28;20487;-79
2024/01/05 09:16:34;;;;;;;0.50;0.50;;;6.40;99.90;;;;;;5075326;28;20483;-79
2024/01/05 09:19:01;;;;;;;0.80;0.70;;;6.50;99.90;;;;;;5075088;28;20464;-79
2024/01/05 09:21:28;;;;;;;0.40;0.37;;;6.50;99.90;;;;;;5075380;28;20436;-79
2024/01/05 09:23:54;;;;;;;2.60;0.70;;;6.60;99.90;;;;;;5074599;28;20448;-79
2024/01/05 09:26:21;;;;;;;0.50;0.50;;;6.70;99.90;;;;;;5075195;28;20808;-80
2024/01/05 09:28:48;;;;;;;1.57;0.50;;;6.80;99.90;;;;;;5074747;28;20465;-79
2024/01/05 09:31:15;;;;;;;0.60;0.60;;;6.90;99.90;;;;;;5075172;28;20448;-80
2024/01/05 09:33:43;;;;;;;2.60;0.50;;;6.90;99.90;;;;;;5074824;28;20422;-79
2024/01/05 09:36:10;;;;;;;0.93;0.60;;;6.90;99.90;;;;;;5075109;28;20449;-79
2024/01/05 09:38:37;;;;;;;0.40;0.40;;;7.00;99.90;;;;;;5074248;28;20982;-79
2024/01/05 09:41:04;;;;;;;1.27;0.70;;;6.90;99.90;;;;;;5076097;28;20441;-80
2024/01/05 09:43:31;;;;;;;0.60;0.50;;;6.90;99.90;;;;;;5075878;28;20452;-80
2024/01/05 09:45:59;;;;;;;0.70;0.70;;;7.00;99.90;;;;;;5075942;28;20488;-80
2024/01/05 09:48:26;;;;;;;0.40;0.40;;;7.10;99.90;;;;;;5075934;28;20469;-80
2024/01/05 09:50:55;;;;;;;4.93;0.60;;;7.20;99.90;;;;;;5076368;28;20457;-80
2024/01/05 09:53:22;;;;;;;1.13;0.40;;;7.20;99.90;;;;;;5076052;28;20444;-79
2024/01/05 09:55:50;;;;;;;1.00;0.50;;;7.30;99.90;;;;;;5076778;28;20981;-80
2024/01/05 09:58:17;;;;;;;0.57;0.43;;;7.30;99.90;;;;;;5079857;28;20556;-80
2024/01/05 10:00:48;;;;;;;0.60;0.40;;;7.40;99.90;;;;;;5080176;28;20433;-80
2024/01/05 10:03:22;;;;;;;0.30;0.30;;;7.40;99.90;;;;;;5079811;28;20428;-79
2024/01/05 10:05:50;;;;;;;0.40;0.40;;;7.50;99.90;;;;;;5079838;28;20487;-79
2024/01/05 10:08:18;;;;;;;1.33;0.50;;;7.40;99.90;;;;;;5087115;28;20461;-79
2024/01/05 10:10:47;;;;;;;0.50;0.50;;;7.40;99.90;;;;;;5096256;28;20451;-78
2024/01/05 10:13:14;;;;;;;1.03;0.30;;;7.40;99.90;;;;;;5096301;28;20449;-79
2024/01/05 10:15:53;;;;;;;0.50;0.43;;;7.50;99.90;;;;;;5086203;28;20467;-79
2024/01/05 10:18:20;;;;;;;0.53;0.50;;;7.50;99.90;;;;;;5083572;28;20465;-78
2024/01/05 10:20:47;;;;;;;0.57;0.50;;;7.60;99.90;;;;;;5084835;28;20471;-78
2024/01/05 10:23:14;;;;;;;0.80;0.50;;;7.70;99.90;;;;;;5081059;28;20445;-78
2024/01/05 10:25:42;;;;;;;6.33;0.83;;;7.70;99.90;;;;;;5084865;28;20484;-78
2024/01/05 10:28:21;;;;;;;0.60;0.50;;;7.70;99.90;;;;;;5078660;28;20465;-78
2024/01/05 10:30:47;;;;;;;0.60;0.40;;;7.70;99.90;;;;;;5078375;28;20870;-78
2024/01/05 10:33:16;;;;;;;0.50;0.47;;;7.80;99.90;;;;;;5078047;28;20463;-79
2024/01/05 10:35:42;;;;;;;5.70;0.63;;;8.00;99.90;;;;;;5078272;28;20444;-79
2024/01/05 10:38:11;;;;;;;0.50;0.50;;;8.10;99.90;;;;;;5077685;28;20468;-78
2024/01/05 10:40:37;;;;;;;0.97;0.53;;;8.20;99.90;;;;;;5077750;28;20539;-78
2024/01/05 10:43:10;;;;;;;0.90;0.60;;;8.30;99.90;;;;;;5077765;28;20452;-78
2024/01/05 10:45:38;;;;;;;0.70;0.50;;;8.40;99.90;;;;;;5078451;28;20529;-79
2024/01/05 10:48:07;;;;;;;0.57;0.50;;;8.50;99.90;;;;;;5078525;28;21000;-79
2024/01/05 10:50:36;;;;;;;0.40;0.40;;;8.50;99.90;;;;;;5080663;28;20930;-79
2024/01/05 10:53:04;;;;;;;0.40;0.40;;;8.50;99.90;;;;;;5078857;28;20445;-79
2024/01/05 10:55:32;;;;;;;2.57;0.60;;;8.50;99.90;;;;;;5078231;28;20443;-80
2024/01/05 10:57:59;;;;;;;2.90;1.30;;;8.50;99.90;;;;;;5077794;28;20468;-80
2024/01/05 11:00:28;;;;;;;1.33;0.80;;;8.60;99.90;;;;;;5078133;28;20437;-80
2024/01/05 11:03:08;;;;;;;0.60;0.47;;;8.70;99.90;;;;;;5078411;28;20453;-80
2024/01/05 11:05:36;;;;;;;0.87;0.60;;;8.80;99.90;;;;;;5077015;28;20495;-80
2024/01/05 11:08:03;;;;;;;2.73;0.83;;;8.70;99.90;;;;;;5075284;28;20515;-79
2024/01/05 11:10:41;;;;;;;1.73;0.77;;;8.70;99.90;;;;;;5075957;28;20480;-79
2024/01/05 11:13:44;;;;;;;3.07;0.77;;;8.60;99.90;;;;;;5076175;28;20425;-82
2024/01/05 11:16:46;;;;;;;0.53;0.40;;;8.50;99.90;;;;;;5077020;28;20480;-79
2024/01/05 11:19:35;;;;;;;0.60;0.60;;;8.50;99.90;;;;;;5076042;28;21020;-80
2024/01/05 11:22:05;;;;;;;0.60;0.50;;;8.60;99.90;;;;;;5075762;28;20445;-79
2024/01/05 11:24:33;;;;;;;1.00;0.90;;;8.60;99.90;;;;;;5076366;28;20918;-80
2024/01/05 11:27:00;;;;;;;0.60;0.40;;;8.60;99.90;;;;;;5077222;28;20482;-80
2024/01/05 11:29:48;;;;;;;1.07;0.63;;;8.60;99.90;;;;;;5076671;28;20848;-80
2024/01/05 11:32:35;;;;;;;5.60;0.80;;;8.60;99.90;;;;;;5076309;28;20422;-79
2024/01/05 11:35:02;;;;;;;1.23;0.70;;;8.60;99.90;;;;;;5075944;28;20417;-79
2024/01/05 11:37:30;;;;;;;0.73;0.47;;;8.60;99.90;;;;;;5075517;28;20448;-79
2024/01/05 11:39:59;;;;;;;0.50;0.50;;;8.70;99.90;;;;;;5075272;28;20972;-79
2024/01/05 11:42:30;;;;;;;3.87;0.80;;;8.60;99.90;;;;;;5075490;28;20449;-79
2024/01/05 11:44:57;;;;;;;0.60;0.50;;;8.70;99.90;;;;;;5075546;28;20476;-79
2024/01/05 11:47:47;;;;;;;0.60;0.40;;;8.70;99.90;;;;;;5075917;28;20825;-79
2024/01/05 11:50:26;;;;;;;0.83;0.50;;;8.70;99.90;;;;;;5073215;28;20798;-80
2024/01/05 11:53:13;;;;;;;0.80;0.47;;;8.70;99.90;;;;;;5076275;28;20429;-80
2024/01/05 11:55:47;;;;;;;0.90;0.90;;;8.70;99.90;;;;;;5076249;28;20440;-80
2024/01/05 11:58:18;;;;;;;5.90;0.60;;;8.60;99.90;;;;;;5082677;28;20514;-81
2024/01/05 12:00:46;;;;;;;1.10;0.70;;;8.70;99.90;;;;;;5078235;28;20930;-80
2024/01/05 12:03:15;;;;;;;0.70;0.40;;;8.70;99.90;;;;;;5077974;28;20882;-80
2024/01/05 12:05:42;;;;;;;0.90;0.50;;;8.70;99.90;;;;;;5077414;28;20863;-80
2024/01/05 12:08:10;;;;;;;1.07;0.70;;;8.60;99.90;;;;;;5078110;28;21061;-80
2024/01/05 12:10:38;;;;;;;0.77;0.50;;;8.60;99.90;;;;;;5077447;28;20445;-81
2024/01/05 12:13:05;;;;;;;0.60;0.60;;;8.60;99.90;;;;;;5077229;28;20456;-81
2024/01/05 12:15:35;;;;;;;2.60;0.70;;;8.70;99.90;;;;;;5077253;28;20449;-80
2024/01/05 12:18:03;;;;;;;1.53;0.53;;;8.60;99.90;;;;;;5077852;28;20985;-81
2024/01/05 12:20:35;;;;;;;0.97;0.50;;;8.60;99.90;;;;;;5076852;28;20445;-81
2024/01/05 12:23:02;;;;;;;2.90;0.67;;;8.50;99.90;;;;;;5076490;28;20436;-79
2024/01/05 12:25:29;;;;;;;0.50;0.50;;;8.60;99.90;;;;;;5076192;28;20563;-80
2024/01/05 12:27:58;;;;;;;0.33;0.30;;;8.60;99.90;;;;;;5076252;28;20465;-79
2024/01/05 12:30:25;;;;;;;0.50;0.50;;;8.60;99.90;;;;;;5075684;28;20445;-79
2024/01/05 12:32:52;;;;;;;0.80;0.70;;;8.60;99.90;;;;;;5075413;28;20440;-79
2024/01/05 12:35:19;;;;;;;3.77;0.40;;;8.60;99.90;;;;;;5074894;28;20532;-79
2024/01/05 12:37:54;;;;;;;0.87;0.60;;;8.70;99.90;;;;;;5074978;28;20469;-78
2024/01/05 12:40:25;;;;;;;0.50;0.50;;;8.70;99.90;;;;;;5075115;28;20539;-79
2024/01/05 12:42:53;;;;;;;0.40;0.40;;;8.70;99.90;;;;;;5074958;28;20502;-79
2024/01/05 12:45:22;;;;;;;0.50;0.50;;;8.80;99.90;;;;;;5074295;28;20473;-78
2024/01/05 12:47:50;;;;;;;1.27;0.83;;;8.80;99.90;;;;;;5074438;28;20571;-79
2024/01/05 12:50:26;;;;;;;3.17;0.90;;;8.80;99.90;;;;;;5074769;28;20483;-79
2024/01/05 12:52:55;;;;;;;2.80;0.80;;;8.90;99.90;;;;;;5074699;28;20451;-79
2024/01/05 12:55:32;;;;;;;2.13;0.60;;;8.90;99.90;;;;;;5074550;28;20441;-79
2024/01/05 12:58:02;;;;;;;2.80;0.70;;;9.00;99.90;;;;;;5074323;28;20457;-79
2024/01/05 13:00:29;;;;;;;0.60;0.60;;;9.00;99.90;;;;;;5074261;28;20441;-79
2024/01/05 13:02:56;;;;;;;1.00;0.73;;;9.00;99.90;;;;;;5075975;28;20436;-79